Aviation Digital Data Service (ADDS)

Output produced by METARs form (0233 UTC 05 June 2020)
found at http://www.aviationweather.gov/metar/data/
 
METAR text: UHSS 050200Z 34005MPS 9999 BKN019CB 13/10 Q1003 R01/70D NOSIG RMK MT OBSC QFE751/1002
Conditions at: UHSS (JUZNO-SAHALINSK , RU) observed 0200 UTC 05 June 2020
Temperature: 13.0°C (55°F)
Dewpoint: 10.0°C (50°F) [RH = 82%]
Pressure (altimeter): 29.62 inches Hg (1003.0 mb)
Winds: from the NNW (340 degrees) at 12 MPH (10 knots; 5.1 m/s)
Visibility: 6 or more miles (10+ km)
Ceiling: 1900 feet AGL
Clouds: broken clouds at 1900 feet AGL
Weather: no significant weather observed at this time

METAR text: UHSS 050130Z 35005MPS 9999 BKN024CB 13/11 Q1003 R01/70D NOSIG RMK MT OBSC QFE751/1002
Conditions at: UHSS (JUZNO-SAHALINSK , RU) observed 0130 UTC 05 June 2020
Temperature: 13.0°C (55°F)
Dewpoint: 11.0°C (52°F) [RH = 88%]
Pressure (altimeter): 29.62 inches Hg (1003.0 mb)
Winds: from the N (350 degrees) at 12 MPH (10 knots; 5.1 m/s)
Visibility: 6 or more miles (10+ km)
Ceiling: 2400 feet AGL
Clouds: broken clouds at 2400 feet AGL
Weather: no significant weather observed at this time

METAR text: UHSS 050100Z 35005MPS 9999 BKN012CB 12/10 Q1003 R01/70D NOSIG RMK MT OBSC QFE751/1001
Conditions at: UHSS (JUZNO-SAHALINSK , RU) observed 0100 UTC 05 June 2020
Temperature: 12.0°C (54°F)
Dewpoint: 10.0°C (50°F) [RH = 88%]
Pressure (altimeter): 29.62 inches Hg (1003.0 mb)
Winds: from the N (350 degrees) at 12 MPH (10 knots; 5.1 m/s)
Visibility: 6 or more miles (10+ km)
Ceiling: 1200 feet AGL
Clouds: broken clouds at 1200 feet AGL
Weather: no significant weather observed at this time

METAR text: UHSS 050030Z 34005MPS 9999 BKN015CB 13/11 Q1003 R01/70D NOSIG RMK MT OBSC QFE751/1001
Conditions at: UHSS (JUZNO-SAHALINSK , RU) observed 0030 UTC 05 June 2020
Temperature: 13.0°C (55°F)
Dewpoint: 11.0°C (52°F) [RH = 88%]
Pressure (altimeter): 29.62 inches Hg (1003.0 mb)
Winds: from the NNW (340 degrees) at 12 MPH (10 knots; 5.1 m/s)
Visibility: 6 or more miles (10+ km)
Ceiling: 1500 feet AGL
Clouds: broken clouds at 1500 feet AGL
Weather: no significant weather observed at this time

METAR text: UHSS 050000Z 36006MPS 9999 BKN018CB 13/11 Q1003 R01/290160 NOSIG RMK MT OBSC QFE751/1001
Conditions at: UHSS (JUZNO-SAHALINSK , RU) observed 0000 UTC 05 June 2020
Temperature: 13.0°C (55°F)
Dewpoint: 11.0°C (52°F) [RH = 88%]
Pressure (altimeter): 29.62 inches Hg (1003.0 mb)
Winds: from the N (360 degrees) at 14 MPH (12 knots; 6.2 m/s)
Visibility: 6 or more miles (10+ km)
Ceiling: 1800 feet AGL
Clouds: broken clouds at 1800 feet AGL
Weather: no significant weather observed at this time

METAR text: UHSS 042330Z 34005MPS 9999 BKN013CB 13/11 Q1002 R01/290160 NOSIG RMK MT OBSC QFE751/1001
Conditions at: UHSS (JUZNO-SAHALINSK , RU) observed 2330 UTC 04 June 2020
Temperature: 13.0°C (55°F)
Dewpoint: 11.0°C (52°F) [RH = 88%]
Pressure (altimeter): 29.59 inches Hg (1002.0 mb)
Winds: from the NNW (340 degrees) at 12 MPH (10 knots; 5.1 m/s)
Visibility: 6 or more miles (10+ km)
Ceiling: 1300 feet AGL
Clouds: broken clouds at 1300 feet AGL
Weather: no significant weather observed at this time

METAR text: UHSS 042300Z 34003MPS 9999 FEW006 SCT022CB 13/11 Q1002 R01/290160 NOSIG RMK MT OBSC QFE750/1001
Conditions at: UHSS (JUZNO-SAHALINSK , RU) observed 2300 UTC 04 June 2020
Temperature: 13.0°C (55°F)
Dewpoint: 11.0°C (52°F) [RH = 88%]
Pressure (altimeter): 29.59 inches Hg (1002.0 mb)
Winds: from the NNW (340 degrees) at 7 MPH (6 knots; 3.1 m/s)
Visibility: 6 or more miles (10+ km)
Ceiling: at least 12,000 feet AGL
Clouds: few clouds at 600 feet AGL
scattered clouds at 2200 feet AGL
Weather: no significant weather observed at this time

METAR text: UHSS 042230Z 33004MPS 9999 SCT006 BKN018CB 11/10 Q1003 R01/290160 NOSIG RMK MT OBSC QFE751/1001
Conditions at: UHSS (JUZNO-SAHALINSK , RU) observed 2230 UTC 04 June 2020
Temperature: 11.0°C (52°F)
Dewpoint: 10.0°C (50°F) [RH = 94%]
Pressure (altimeter): 29.62 inches Hg (1003.0 mb)
Winds: from the NNW (330 degrees) at 9 MPH (8 knots; 4.1 m/s)
Visibility: 6 or more miles (10+ km)
Ceiling: 1800 feet AGL
Clouds: scattered clouds at 600 feet AGL
broken clouds at 1800 feet AGL
Weather: no significant weather observed at this time

METAR text: UHSS 042200Z 35004MPS 9999 SCT006 SCT026CB 11/10 Q1002 R01/290160 NOSIG RMK MT OBSC QFE750/1000
Conditions at: UHSS (JUZNO-SAHALINSK , RU) observed 2200 UTC 04 June 2020
Temperature: 11.0°C (52°F)
Dewpoint: 10.0°C (50°F) [RH = 94%]
Pressure (altimeter): 29.59 inches Hg (1002.0 mb)
Winds: from the N (350 degrees) at 9 MPH (8 knots; 4.1 m/s)
Visibility: 6 or more miles (10+ km)
Ceiling: at least 12,000 feet AGL
Clouds: scattered clouds at 600 feet AGL
scattered clouds at 2600 feet AGL
Weather: no significant weather observed at this time

METAR text: UHSS 042130Z 34005MPS 9999 -SHRA SCT026CB 11/10 Q1001 R01/290160 NOSIG RMK MT OBSC QFE750/1000
Conditions at: UHSS (JUZNO-SAHALINSK , RU) observed 2130 UTC 04 June 2020
Temperature: 11.0°C (52°F)
Dewpoint: 10.0°C (50°F) [RH = 94%]
Pressure (altimeter): 29.56 inches Hg (1001.0 mb)
Winds: from the NNW (340 degrees) at 12 MPH (10 knots; 5.1 m/s)
Visibility: 6 or more miles (10+ km)
Ceiling: at least 12,000 feet AGL
Clouds: scattered clouds at 2600 feet AGL
Weather: -SHRA  (light rain showers)

METAR text: UHSS 042100Z 02001MPS 9999 -SHRA BKN016CB 11/10 Q1002 R01/290160 NOSIG RMK MT OBSC QFE750/1001
Conditions at: UHSS (JUZNO-SAHALINSK , RU) observed 2100 UTC 04 June 2020
Temperature: 11.0°C (52°F)
Dewpoint: 10.0°C (50°F) [RH = 94%]
Pressure (altimeter): 29.59 inches Hg (1002.0 mb)
Winds: from the NNE (20 degrees) at 2 MPH (2 knots; 1.0 m/s)
Visibility: 6 or more miles (10+ km)
Ceiling: 1600 feet AGL
Clouds: broken clouds at 1600 feet AGL
Weather: -SHRA  (light rain showers)

METAR text: UHSS 042030Z 20002MPS 9999 -SHRA BKN016CB 11/10 Q1003 R01/290060 NOSIG RMK MT OBSC QFE751/1001
Conditions at: UHSS (JUZNO-SAHALINSK , RU) observed 2030 UTC 04 June 2020
Temperature: 11.0°C (52°F)
Dewpoint: 10.0°C (50°F) [RH = 94%]
Pressure (altimeter): 29.62 inches Hg (1003.0 mb)
Winds: from the SSW (200 degrees) at 5 MPH (4 knots; 2.1 m/s)
Visibility: 6 or more miles (10+ km)
Ceiling: 1600 feet AGL
Clouds: broken clouds at 1600 feet AGL
Weather: -SHRA  (light rain showers)

METAR text: UHSS 042000Z 25002MPS 220V290 9999 SCT020CB 11/10 Q1002 R01/290060 NOSIG RMK MT OBSC QFE750/1001
Conditions at: UHSS (JUZNO-SAHALINSK , RU) observed 2000 UTC 04 June 2020
Temperature: 11.0°C (52°F)
Dewpoint: 10.0°C (50°F) [RH = 94%]
Pressure (altimeter): 29.59 inches Hg (1002.0 mb)
Winds: from the WSW (250 degrees) at 5 MPH (4 knots; 2.1 m/s)
Visibility: 6 or more miles (10+ km)
Ceiling: at least 12,000 feet AGL
Clouds: scattered clouds at 2000 feet AGL
Weather: no significant weather observed at this time

METAR text: UHSS 041930Z 32002MPS 270V010 9999 FEW033CB 11/09 Q1002 R01/70D NOSIG RMK MT OBSC QFE750/1000
Conditions at: UHSS (JUZNO-SAHALINSK , RU) observed 1930 UTC 04 June 2020
Temperature: 11.0°C (52°F)
Dewpoint: 9.0°C (48°F) [RH = 87%]
Pressure (altimeter): 29.59 inches Hg (1002.0 mb)
Winds: from the NW (320 degrees) at 5 MPH (4 knots; 2.1 m/s)
Visibility: 6 or more miles (10+ km)
Ceiling: at least 12,000 feet AGL
Clouds: few clouds at 3300 feet AGL
Weather: no significant weather observed at this time

METAR text: UHSS 041900Z 31005MPS 9999 FEW033CB 10/09 Q1001 R01/70D NOSIG RMK MT OBSC QFE749/0999
Conditions at: UHSS (JUZNO-SAHALINSK , RU) observed 1900 UTC 04 June 2020
Temperature: 10.0°C (50°F)
Dewpoint: 9.0°C (48°F) [RH = 93%]
Pressure (altimeter): 29.56 inches Hg (1001.0 mb)
Winds: from the NW (310 degrees) at 12 MPH (10 knots; 5.1 m/s)
Visibility: 6 or more miles (10+ km)
Ceiling: at least 12,000 feet AGL
Clouds: few clouds at 3300 feet AGL
Weather: no significant weather observed at this time

METAR text: UHSS 041800Z 02006MPS 6000 -SHRA SCT033CB 11/10 Q1000 R01/70D NOSIG RMK MT OBSC QFE749/0999
Conditions at: UHSS (JUZNO-SAHALINSK , RU) observed 1800 UTC 04 June 2020
Temperature: 11.0°C (52°F)
Dewpoint: 10.0°C (50°F) [RH = 94%]
Pressure (altimeter): 29.53 inches Hg (1000.0 mb)
Winds: from the NNE (20 degrees) at 14 MPH (12 knots; 6.2 m/s)
Visibility: 4 miles ( 6 km)
Ceiling: at least 12,000 feet AGL
Clouds: scattered clouds at 3300 feet AGL
Weather: -SHRA  (light rain showers)

METAR text: UHSS 041700Z 00000MPS 9999 -SHRA BKN026CB 10/09 Q1004 R01/70D NOSIG RMK MT OBSC QFE752/1002
Conditions at: UHSS (JUZNO-SAHALINSK , RU) observed 1700 UTC 04 June 2020
Temperature: 10.0°C (50°F)
Dewpoint: 9.0°C (48°F) [RH = 93%]
Pressure (altimeter): 29.65 inches Hg (1004.0 mb)
Winds: calm
Visibility: 6 or more miles (10+ km)
Ceiling: 2600 feet AGL
Clouds: broken clouds at 2600 feet AGL
Weather: -SHRA  (light rain showers)

METAR text: UHSS 041600Z 34004MPS 9999 -SHRA SCT050CB 11/09 Q1003 R01/70D NOSIG RMK QFE751/1002
Conditions at: UHSS (JUZNO-SAHALINSK , RU) observed 1600 UTC 04 June 2020
Temperature: 11.0°C (52°F)
Dewpoint: 9.0°C (48°F) [RH = 87%]
Pressure (altimeter): 29.62 inches Hg (1003.0 mb)
Winds: from the NNW (340 degrees) at 9 MPH (8 knots; 4.1 m/s)
Visibility: 6 or more miles (10+ km)
Ceiling: at least 12,000 feet AGL
Clouds: scattered clouds at 5000 feet AGL
Weather: -SHRA  (light rain showers)

METAR text: UHSS 041500Z 36003MPS 9999 NSC 12/09 Q1004 R01/CLRD70 NOSIG RMK QFE752/1003
Conditions at: UHSS (JUZNO-SAHALINSK , RU) observed 1500 UTC 04 June 2020
Temperature: 12.0°C (54°F)
Dewpoint: 9.0°C (48°F) [RH = 82%]
Pressure (altimeter): 29.65 inches Hg (1004.0 mb)
Winds: from the N (360 degrees) at 7 MPH (6 knots; 3.1 m/s)
Visibility: 6 or more miles (10+ km)
Ceiling: at least 12,000 feet AGL
Clouds: sky clear below 12,000 feet AGL
Weather: no significant weather observed at this time

METAR text: UHSS 041400Z 26001MPS 9999 NSC 12/09 Q1005 R01/CLRD70 NOSIG RMK QFE752/1003
Conditions at: UHSS (JUZNO-SAHALINSK , RU) observed 1400 UTC 04 June 2020
Temperature: 12.0°C (54°F)
Dewpoint: 9.0°C (48°F) [RH = 82%]
Pressure (altimeter): 29.68 inches Hg (1005.0 mb)
Winds: from the W (260 degrees) at 2 MPH (2 knots; 1.0 m/s)
Visibility: 6 or more miles (10+ km)
Ceiling: at least 12,000 feet AGL
Clouds: sky clear below 12,000 feet AGL
Weather: no significant weather observed at this time

METAR text: UHSS 041300Z 33003MPS 310V020 9999 NSC 12/09 Q1005 R01/70D NOSIG RMK QFE752/1003
Conditions at: UHSS (JUZNO-SAHALINSK , RU) observed 1300 UTC 04 June 2020
Temperature: 12.0°C (54°F)
Dewpoint: 9.0°C (48°F) [RH = 82%]
Pressure (altimeter): 29.68 inches Hg (1005.0 mb)
Winds: from the NNW (330 degrees) at 7 MPH (6 knots; 3.1 m/s)
Visibility: 6 or more miles (10+ km)
Ceiling: at least 12,000 feet AGL
Clouds: sky clear below 12,000 feet AGL
Weather: no significant weather observed at this time

METAR text: UHSS 041200Z 33005MPS 9999 NSC 11/09 Q1005 R01/70D NOSIG RMK QFE752/1003
Conditions at: UHSS (JUZNO-SAHALINSK , RU) observed 1200 UTC 04 June 2020
Temperature: 11.0°C (52°F)
Dewpoint: 9.0°C (48°F) [RH = 87%]
Pressure (altimeter): 29.68 inches Hg (1005.0 mb)
Winds: from the NNW (330 degrees) at 12 MPH (10 knots; 5.1 m/s)
Visibility: 6 or more miles (10+ km)
Ceiling: at least 12,000 feet AGL
Clouds: sky clear below 12,000 feet AGL
Weather: no significant weather observed at this time

METAR text: UHSS 041100Z 33004MPS 9999 NSC 12/09 Q1006 R01/70D NOSIG RMK QFE753/1004
Conditions at: UHSS (JUZNO-SAHALINSK , RU) observed 1100 UTC 04 June 2020
Temperature: 12.0°C (54°F)
Dewpoint: 9.0°C (48°F) [RH = 82%]
Pressure (altimeter): 29.70 inches Hg (1006.0 mb)
Winds: from the NNW (330 degrees) at 9 MPH (8 knots; 4.1 m/s)
Visibility: 6 or more miles (10+ km)
Ceiling: at least 12,000 feet AGL
Clouds: sky clear below 12,000 feet AGL
Weather: no significant weather observed at this time

METAR text: UHSS 041030Z 34004MPS 9999 NSC 12/09 Q1006 R01/70D NOSIG RMK QFE753/1004
Conditions at: UHSS (JUZNO-SAHALINSK , RU) observed 1030 UTC 04 June 2020
Temperature: 12.0°C (54°F)
Dewpoint: 9.0°C (48°F) [RH = 82%]
Pressure (altimeter): 29.70 inches Hg (1006.0 mb)
Winds: from the NNW (340 degrees) at 9 MPH (8 knots; 4.1 m/s)
Visibility: 6 or more miles (10+ km)
Ceiling: at least 12,000 feet AGL
Clouds: sky clear below 12,000 feet AGL
Weather: no significant weather observed at this time

METAR text: UHSS 041000Z 34003MPS 9999 NSC 13/10 Q1005 R01/70D NOSIG RMK QFE753/1004
Conditions at: UHSS (JUZNO-SAHALINSK , RU) observed 1000 UTC 04 June 2020
Temperature: 13.0°C (55°F)
Dewpoint: 10.0°C (50°F) [RH = 82%]
Pressure (altimeter): 29.68 inches Hg (1005.0 mb)
Winds: from the NNW (340 degrees) at 7 MPH (6 knots; 3.1 m/s)
Visibility: 6 or more miles (10+ km)
Ceiling: at least 12,000 feet AGL
Clouds: sky clear below 12,000 feet AGL
Weather: no significant weather observed at this time

METAR text: UHSS 040930Z 35004MPS 9999 NSC 15/11 Q1005 R19/70D NOSIG RMK QFE752/1003
Conditions at: UHSS (JUZNO-SAHALINSK , RU) observed 0930 UTC 04 June 2020
Temperature: 15.0°C (59°F)
Dewpoint: 11.0°C (52°F) [RH = 77%]
Pressure (altimeter): 29.68 inches Hg (1005.0 mb)
Winds: from the N (350 degrees) at 9 MPH (8 knots; 4.1 m/s)
Visibility: 6 or more miles (10+ km)
Ceiling: at least 12,000 feet AGL
Clouds: sky clear below 12,000 feet AGL
Weather: no significant weather observed at this time

METAR text: UHSS 040900Z 00000MPS 9999 NSC 17/10 Q1005 R19/70D NOSIG RMK QFE752/1003
Conditions at: UHSS (JUZNO-SAHALINSK , RU) observed 0900 UTC 04 June 2020
Temperature: 17.0°C (63°F)
Dewpoint: 10.0°C (50°F) [RH = 63%]
Pressure (altimeter): 29.68 inches Hg (1005.0 mb)
Winds: calm
Visibility: 6 or more miles (10+ km)
Ceiling: at least 12,000 feet AGL
Clouds: sky clear below 12,000 feet AGL
Weather: no significant weather observed at this time

METAR text: UHSS 040830Z 26001MPS 9999 NSC 17/10 Q1006 R19/70D NOSIG RMK QFE753/1004
Conditions at: UHSS (JUZNO-SAHALINSK , RU) observed 0830 UTC 04 June 2020
Temperature: 17.0°C (63°F)
Dewpoint: 10.0°C (50°F) [RH = 63%]
Pressure (altimeter): 29.70 inches Hg (1006.0 mb)
Winds: from the W (260 degrees) at 2 MPH (2 knots; 1.0 m/s)
Visibility: 6 or more miles (10+ km)
Ceiling: at least 12,000 feet AGL
Clouds: sky clear below 12,000 feet AGL
Weather: no significant weather observed at this time

METAR text: UHSS 040800Z 25002MPS 9999 NSC 18/10 Q1005 R19/70D NOSIG RMK QFE753/1004
Conditions at: UHSS (JUZNO-SAHALINSK , RU) observed 0800 UTC 04 June 2020
Temperature: 18.0°C (64°F)
Dewpoint: 10.0°C (50°F) [RH = 59%]
Pressure (altimeter): 29.68 inches Hg (1005.0 mb)
Winds: from the WSW (250 degrees) at 5 MPH (4 knots; 2.1 m/s)
Visibility: 6 or more miles (10+ km)
Ceiling: at least 12,000 feet AGL
Clouds: sky clear below 12,000 feet AGL
Weather: no significant weather observed at this time

METAR text: UHSS 040730Z 28002MPS 9999 NSC 19/09 Q1005 R19/70D NOSIG RMK QFE753/1004
Conditions at: UHSS (JUZNO-SAHALINSK , RU) observed 0730 UTC 04 June 2020
Temperature: 19.0°C (66°F)
Dewpoint: 9.0°C (48°F) [RH = 52%]
Pressure (altimeter): 29.68 inches Hg (1005.0 mb)
Winds: from the W (280 degrees) at 5 MPH (4 knots; 2.1 m/s)
Visibility: 6 or more miles (10+ km)
Ceiling: at least 12,000 feet AGL
Clouds: sky clear below 12,000 feet AGL
Weather: no significant weather observed at this time

METAR text: UHSS 040700Z 28002MPS 240V320 9999 NSC 19/09 Q1005 R19/70D NOSIG RMK QFE753/1004
Conditions at: UHSS (JUZNO-SAHALINSK , RU) observed 0700 UTC 04 June 2020
Temperature: 19.0°C (66°F)
Dewpoint: 9.0°C (48°F) [RH = 52%]
Pressure (altimeter): 29.68 inches Hg (1005.0 mb)
Winds: from the W (280 degrees) at 5 MPH (4 knots; 2.1 m/s)
Visibility: 6 or more miles (10+ km)
Ceiling: at least 12,000 feet AGL
Clouds: sky clear below 12,000 feet AGL
Weather: no significant weather observed at this time

METAR text: UHSS 040630Z 23004MPS 9999 NSC 19/09 Q1006 R19/70D NOSIG RMK QFE753/1004
Conditions at: UHSS (JUZNO-SAHALINSK , RU) observed 0630 UTC 04 June 2020
Temperature: 19.0°C (66°F)
Dewpoint: 9.0°C (48°F) [RH = 52%]
Pressure (altimeter): 29.70 inches Hg (1006.0 mb)
Winds: from the SW (230 degrees) at 9 MPH (8 knots; 4.1 m/s)
Visibility: 6 or more miles (10+ km)
Ceiling: at least 12,000 feet AGL
Clouds: sky clear below 12,000 feet AGL
Weather: no significant weather observed at this time

METAR text: UHSS 040600Z 22004MPS 9999 NSC 19/09 Q1006 R19/70D NOSIG RMK QFE753/1004
Conditions at: UHSS (JUZNO-SAHALINSK , RU) observed 0600 UTC 04 June 2020
Temperature: 19.0°C (66°F)
Dewpoint: 9.0°C (48°F) [RH = 52%]
Pressure (altimeter): 29.70 inches Hg (1006.0 mb)
Winds: from the SW (220 degrees) at 9 MPH (8 knots; 4.1 m/s)
Visibility: 6 or more miles (10+ km)
Ceiling: at least 12,000 feet AGL
Clouds: sky clear below 12,000 feet AGL
Weather: no significant weather observed at this time

METAR text: UHSS 040530Z 20005MPS 9999 NSC 19/08 Q1006 R19/70D NOSIG RMK QFE753/1004
Conditions at: UHSS (JUZNO-SAHALINSK , RU) observed 0530 UTC 04 June 2020
Temperature: 19.0°C (66°F)
Dewpoint: 8.0°C (46°F) [RH = 49%]
Pressure (altimeter): 29.70 inches Hg (1006.0 mb)
Winds: from the SSW (200 degrees) at 12 MPH (10 knots; 5.1 m/s)
Visibility: 6 or more miles (10+ km)
Ceiling: at least 12,000 feet AGL
Clouds: sky clear below 12,000 feet AGL
Weather: no significant weather observed at this time

METAR text: UHSS 040500Z 19003MPS 9999 NSC 20/10 Q1006 R19/70D NOSIG RMK QFE753/1004
Conditions at: UHSS (JUZNO-SAHALINSK , RU) observed 0500 UTC 04 June 2020
Temperature: 20.0°C (68°F)
Dewpoint: 10.0°C (50°F) [RH = 53%]
Pressure (altimeter): 29.70 inches Hg (1006.0 mb)
Winds: from the S (190 degrees) at 7 MPH (6 knots; 3.1 m/s)
Visibility: 6 or more miles (10+ km)
Ceiling: at least 12,000 feet AGL
Clouds: sky clear below 12,000 feet AGL
Weather: no significant weather observed at this time

METAR text: UHSS 040430Z 18003MPS 9999 NSC 19/10 Q1006 R19/70D NOSIG RMK QFE753/1004
Conditions at: UHSS (JUZNO-SAHALINSK , RU) observed 0430 UTC 04 June 2020
Temperature: 19.0°C (66°F)
Dewpoint: 10.0°C (50°F) [RH = 56%]
Pressure (altimeter): 29.70 inches Hg (1006.0 mb)
Winds: from the S (180 degrees) at 7 MPH (6 knots; 3.1 m/s)
Visibility: 6 or more miles (10+ km)
Ceiling: at least 12,000 feet AGL
Clouds: sky clear below 12,000 feet AGL
Weather: no significant weather observed at this time

METAR text: UHSS 040400Z 17005MPS 9999 NSC 19/10 Q1006 R19/70D NOSIG RMK QFE753/1005
Conditions at: UHSS (JUZNO-SAHALINSK , RU) observed 0400 UTC 04 June 2020
Temperature: 19.0°C (66°F)
Dewpoint: 10.0°C (50°F) [RH = 56%]
Pressure (altimeter): 29.70 inches Hg (1006.0 mb)
Winds: from the S (170 degrees) at 12 MPH (10 knots; 5.1 m/s)
Visibility: 6 or more miles (10+ km)
Ceiling: at least 12,000 feet AGL
Clouds: sky clear below 12,000 feet AGL
Weather: no significant weather observed at this time

METAR text: UHSS 040330Z 20004MPS 9999 NSC 19/10 Q1006 R19/70D NOSIG RMK QFE753/1004
Conditions at: UHSS (JUZNO-SAHALINSK , RU) observed 0330 UTC 04 June 2020
Temperature: 19.0°C (66°F)
Dewpoint: 10.0°C (50°F) [RH = 56%]
Pressure (altimeter): 29.70 inches Hg (1006.0 mb)
Winds: from the SSW (200 degrees) at 9 MPH (8 knots; 4.1 m/s)
Visibility: 6 or more miles (10+ km)
Ceiling: at least 12,000 feet AGL
Clouds: sky clear below 12,000 feet AGL
Weather: no significant weather observed at this time

METAR text: UHSS 040300Z 17003MPS 9999 NSC 17/11 Q1006 R19/70D NOSIG RMK QFE753/1005
Conditions at: UHSS (JUZNO-SAHALINSK , RU) observed 0300 UTC 04 June 2020
Temperature: 17.0°C (63°F)
Dewpoint: 11.0°C (52°F) [RH = 68%]
Pressure (altimeter): 29.70 inches Hg (1006.0 mb)
Winds: from the S (170 degrees) at 7 MPH (6 knots; 3.1 m/s)
Visibility: 6 or more miles (10+ km)
Ceiling: at least 12,000 feet AGL
Clouds: sky clear below 12,000 feet AGL
Weather: no significant weather observed at this time

METAR text: UHSS 040230Z 18006MPS 9999 NSC 16/10 Q1007 R19/70D NOSIG RMK QFE754/1005
Conditions at: UHSS (JUZNO-SAHALINSK , RU) observed 0230 UTC 04 June 2020
Temperature: 16.0°C (61°F)
Dewpoint: 10.0°C (50°F) [RH = 68%]
Pressure (altimeter): 29.73 inches Hg (1007.0 mb)
Winds: from the S (180 degrees) at 14 MPH (12 knots; 6.2 m/s)
Visibility: 6 or more miles (10+ km)
Ceiling: at least 12,000 feet AGL
Clouds: sky clear below 12,000 feet AGL
Weather: no significant weather observed at this time

METAR text: UHSS 040200Z 21005MPS 9999 NSC 18/11 Q1007 R19/70D NOSIG RMK QFE754/1005
Conditions at: UHSS (JUZNO-SAHALINSK , RU) observed 0200 UTC 04 June 2020
Temperature: 18.0°C (64°F)
Dewpoint: 11.0°C (52°F) [RH = 64%]
Pressure (altimeter): 29.73 inches Hg (1007.0 mb)
Winds: from the SSW (210 degrees) at 12 MPH (10 knots; 5.1 m/s)
Visibility: 6 or more miles (10+ km)
Ceiling: at least 12,000 feet AGL
Clouds: sky clear below 12,000 feet AGL
Weather: no significant weather observed at this time

METAR text: UHSS 040130Z 20005MPS 9999 NSC 17/11 Q1007 R19/70D NOSIG RMK QFE753/1005
Conditions at: UHSS (JUZNO-SAHALINSK , RU) observed 0130 UTC 04 June 2020
Temperature: 17.0°C (63°F)
Dewpoint: 11.0°C (52°F) [RH = 68%]
Pressure (altimeter): 29.73 inches Hg (1007.0 mb)
Winds: from the SSW (200 degrees) at 12 MPH (10 knots; 5.1 m/s)
Visibility: 6 or more miles (10+ km)
Ceiling: at least 12,000 feet AGL
Clouds: sky clear below 12,000 feet AGL
Weather: no significant weather observed at this time

METAR text: UHSS 040100Z 18003MPS 9999 NSC 16/11 Q1006 R01/70D NOSIG RMK QFE753/1005
Conditions at: UHSS (JUZNO-SAHALINSK , RU) observed 0100 UTC 04 June 2020
Temperature: 16.0°C (61°F)
Dewpoint: 11.0°C (52°F) [RH = 72%]
Pressure (altimeter): 29.70 inches Hg (1006.0 mb)
Winds: from the S (180 degrees) at 7 MPH (6 knots; 3.1 m/s)
Visibility: 6 or more miles (10+ km)
Ceiling: at least 12,000 feet AGL
Clouds: sky clear below 12,000 feet AGL
Weather: no significant weather observed at this time

METAR text: UHSS 040030Z 18004MPS 9999 NSC 16/11 Q1006 R01/70D NOSIG RMK QFE754/1005
Conditions at: UHSS (JUZNO-SAHALINSK , RU) observed 0030 UTC 04 June 2020
Temperature: 16.0°C (61°F)
Dewpoint: 11.0°C (52°F) [RH = 72%]
Pressure (altimeter): 29.70 inches Hg (1006.0 mb)
Winds: from the S (180 degrees) at 9 MPH (8 knots; 4.1 m/s)
Visibility: 6 or more miles (10+ km)
Ceiling: at least 12,000 feet AGL
Clouds: sky clear below 12,000 feet AGL
Weather: no significant weather observed at this time

METAR text: UHSS 040000Z 20002MPS 150V240 9999 NSC 16/11 Q1006 R01/70D NOSIG RMK QFE753/1005
Conditions at: UHSS (JUZNO-SAHALINSK , RU) observed 0000 UTC 04 June 2020
Temperature: 16.0°C (61°F)
Dewpoint: 11.0°C (52°F) [RH = 72%]
Pressure (altimeter): 29.70 inches Hg (1006.0 mb)
Winds: from the SSW (200 degrees) at 5 MPH (4 knots; 2.1 m/s)
Visibility: 6 or more miles (10+ km)
Ceiling: at least 12,000 feet AGL
Clouds: sky clear below 12,000 feet AGL
Weather: no significant weather observed at this time

METAR text: UHSS 032330Z 21002MPS 9999 NSC 16/11 Q1006 R01/70D NOSIG RMK QFE753/1005
Conditions at: UHSS (JUZNO-SAHALINSK , RU) observed 2330 UTC 03 June 2020
Temperature: 16.0°C (61°F)
Dewpoint: 11.0°C (52°F) [RH = 72%]
Pressure (altimeter): 29.70 inches Hg (1006.0 mb)
Winds: from the SSW (210 degrees) at 5 MPH (4 knots; 2.1 m/s)
Visibility: 6 or more miles (10+ km)
Ceiling: at least 12,000 feet AGL
Clouds: sky clear below 12,000 feet AGL
Weather: no significant weather observed at this time

METAR text: UHSS 032300Z 21002MPS 9999 NSC 15/11 Q1006 R01/70D NOSIG RMK QFE753/1005
Conditions at: UHSS (JUZNO-SAHALINSK , RU) observed 2300 UTC 03 June 2020
Temperature: 15.0°C (59°F)
Dewpoint: 11.0°C (52°F) [RH = 77%]
Pressure (altimeter): 29.70 inches Hg (1006.0 mb)
Winds: from the SSW (210 degrees) at 5 MPH (4 knots; 2.1 m/s)
Visibility: 6 or more miles (10+ km)
Ceiling: at least 12,000 feet AGL
Clouds: sky clear below 12,000 feet AGL
Weather: no significant weather observed at this time

METAR text: UHSS 032230Z 20002MPS 9999 NSC 14/12 Q1006 R01/70D NOSIG RMK QFE753/1005
Conditions at: UHSS (JUZNO-SAHALINSK , RU) observed 2230 UTC 03 June 2020
Temperature: 14.0°C (57°F)
Dewpoint: 12.0°C (54°F) [RH = 88%]
Pressure (altimeter): 29.70 inches Hg (1006.0 mb)
Winds: from the SSW (200 degrees) at 5 MPH (4 knots; 2.1 m/s)
Visibility: 6 or more miles (10+ km)
Ceiling: at least 12,000 feet AGL
Clouds: sky clear below 12,000 feet AGL
Weather: no significant weather observed at this time

METAR text: UHSS 032200Z 20001MPS 9999 FEW006 12/12 Q1006 R01/70D NOSIG RMK MT OBSC QFE753/1005
Conditions at: UHSS (JUZNO-SAHALINSK , RU) observed 2200 UTC 03 June 2020
Temperature: 12.0°C (54°F)
Dewpoint: 12.0°C (54°F) [RH = 100%]
Pressure (altimeter): 29.70 inches Hg (1006.0 mb)
Winds: from the SSW (200 degrees) at 2 MPH (2 knots; 1.0 m/s)
Visibility: 6 or more miles (10+ km)
Ceiling: at least 12,000 feet AGL
Clouds: few clouds at 600 feet AGL
Weather: no significant weather observed at this time

METAR text: UHSS 032130Z 25001MPS 9999 SCT003 11/10 Q1006 R19/70D NOSIG RMK QBB100 MT OBSC QFE753/1004
Conditions at: UHSS (JUZNO-SAHALINSK , RU) observed 2130 UTC 03 June 2020
Temperature: 11.0°C (52°F)
Dewpoint: 10.0°C (50°F) [RH = 94%]
Pressure (altimeter): 29.70 inches Hg (1006.0 mb)
Winds: from the WSW (250 degrees) at 2 MPH (2 knots; 1.0 m/s)
Visibility: 6 or more miles (10+ km)
Ceiling: at least 12,000 feet AGL
Clouds: scattered clouds at 300 feet AGL
Weather: no significant weather observed at this time

METAR text: UHSS 032100Z 00000MPS 9000 SCT002 10/10 Q1006 R19/70D NOSIG RMK QBB080 MT OBSC QFE753/1004
Conditions at: UHSS (JUZNO-SAHALINSK , RU) observed 2100 UTC 03 June 2020
Temperature: 10.0°C (50°F)
Dewpoint: 10.0°C (50°F) [RH = 100%]
Pressure (altimeter): 29.70 inches Hg (1006.0 mb)
Winds: calm
Visibility: 6 miles ( 9 km)
Ceiling: at least 12,000 feet AGL
Clouds: scattered clouds at 200 feet AGL
Weather: no significant weather observed at this time

METAR text: UHSS 032030Z 29001MPS 8000 SCT002 10/10 Q1006 R19/70D NOSIG RMK QBB060 MT OBSC QFE753/1004
Conditions at: UHSS (JUZNO-SAHALINSK , RU) observed 2030 UTC 03 June 2020
Temperature: 10.0°C (50°F)
Dewpoint: 10.0°C (50°F) [RH = 100%]
Pressure (altimeter): 29.70 inches Hg (1006.0 mb)
Winds: from the WNW (290 degrees) at 2 MPH (2 knots; 1.0 m/s)
Visibility: 5 miles ( 8 km)
Ceiling: at least 12,000 feet AGL
Clouds: scattered clouds at 200 feet AGL
Weather: no significant weather observed at this time

METAR text: UHSS 032000Z 00000MPS 0500 FG BKN003 08/08 Q1006 R19/70D NOSIG RMK QBB100 MT OBSC QFE753/1004
Conditions at: UHSS (JUZNO-SAHALINSK , RU) observed 2000 UTC 03 June 2020
Temperature: 8.0°C (46°F)
Dewpoint: 8.0°C (46°F) [RH = 100%]
Pressure (altimeter): 29.70 inches Hg (1006.0 mb)
Winds: calm
Visibility: 0.31 miles (0.50 km)
Ceiling: 300 feet AGL
Clouds: broken clouds at 300 feet AGL
Weather: FG  (fog)

METAR text: UHSS 031930Z 08001MPS 0500 0400N R19/0400N FG BKN002 07/06 Q1006 R19/CLRD70 NOSIG RMK QBB060 MT OBSC QFE753/1004
Conditions at: UHSS (JUZNO-SAHALINSK , RU) observed 1930 UTC 03 June 2020
Temperature: 7.0°C (45°F)
Dewpoint: 6.0°C (43°F) [RH = 93%]
Pressure (altimeter): 29.70 inches Hg (1006.0 mb)
Winds: from the E (80 degrees) at 2 MPH (2 knots; 1.0 m/s)
Visibility: 0.31 miles (0.50 km)
Ceiling: 200 feet AGL
Clouds: broken clouds at 200 feet AGL
Weather: FG  (fog)

METAR text: UHSS 031900Z 00000MPS 5000 1000N R19/1000N BR BKN002 06/05 Q1006 R19/CLRD70 NOSIG RMK QBB060 MT OBSC QFE753/1004
Conditions at: UHSS (JUZNO-SAHALINSK , RU) observed 1900 UTC 03 June 2020
Temperature: 6.0°C (43°F)
Dewpoint: 5.0°C (41°F) [RH = 93%]
Pressure (altimeter): 29.70 inches Hg (1006.0 mb)
Winds: calm
Visibility: 3 miles ( 5 km)
Ceiling: 200 feet AGL
Clouds: broken clouds at 200 feet AGL
Weather: BR  (mist)

METAR text: UHSS 031800Z 00000MPS 7000 MIFG BKN003 05/05 Q1005 R19/70D NOSIG RMK QBB090 MT OBSC QFE753/1004
Conditions at: UHSS (JUZNO-SAHALINSK , RU) observed 1800 UTC 03 June 2020
Temperature: 5.0°C (41°F)
Dewpoint: 5.0°C (41°F) [RH = 100%]
Pressure (altimeter): 29.68 inches Hg (1005.0 mb)
Winds: calm
Visibility: 4 miles ( 7 km)
Ceiling: 300 feet AGL
Clouds: broken clouds at 300 feet AGL
Weather: MIFG  (shallow fog)

METAR text: UHSS 031700Z 36001MPS 3100 1000N R19/1800N MIFG BR SCT006 05/04 Q1006 R19/CLRD70 NOSIG RMK MT OBSC QFE753/1004
Conditions at: UHSS (JUZNO-SAHALINSK , RU) observed 1700 UTC 03 June 2020
Temperature: 5.0°C (41°F)
Dewpoint: 4.0°C (39°F) [RH = 93%]
Pressure (altimeter): 29.70 inches Hg (1006.0 mb)
Winds: from the N (360 degrees) at 2 MPH (2 knots; 1.0 m/s)
Visibility: 1.93 miles (3.11 km)
Ceiling: at least 12,000 feet AGL
Clouds: scattered clouds at 600 feet AGL
Weather: MIFG BR  (shallow fog, mist)

METAR text: UHSS 031600Z 36002MPS 8000 SCT040 05/05 Q1005 R19/70D NOSIG RMK QFE753/1004
Conditions at: UHSS (JUZNO-SAHALINSK , RU) observed 1600 UTC 03 June 2020
Temperature: 5.0°C (41°F)
Dewpoint: 5.0°C (41°F) [RH = 100%]
Pressure (altimeter): 29.68 inches Hg (1005.0 mb)
Winds: from the N (360 degrees) at 5 MPH (4 knots; 2.1 m/s)
Visibility: 5 miles ( 8 km)
Ceiling: at least 12,000 feet AGL
Clouds: scattered clouds at 4000 feet AGL
Weather: no significant weather observed at this time

METAR text: UHSS 031500Z 34001MPS 7000 SCT040 06/06 Q1005 R19/70D NOSIG RMK QFE753/1004
Conditions at: UHSS (JUZNO-SAHALINSK , RU) observed 1500 UTC 03 June 2020
Temperature: 6.0°C (43°F)
Dewpoint: 6.0°C (43°F) [RH = 100%]
Pressure (altimeter): 29.68 inches Hg (1005.0 mb)
Winds: from the NNW (340 degrees) at 2 MPH (2 knots; 1.0 m/s)
Visibility: 4 miles ( 7 km)
Ceiling: at least 12,000 feet AGL
Clouds: scattered clouds at 4000 feet AGL
Weather: no significant weather observed at this time

Forecast for: UHSS (JUZNO-SAHALINSK , RU)
Text: TAF UHSS 050150Z 0503/0609 36003MPS 9999 BKN015CB
Forecast period: 0300 UTC 05 June 2020 to 0900 UTC 06 June 2020
Forecast type: FROM: standard forecast or significant change
Winds: from the N (360 degrees) at 7 MPH (6 knots; 3.1 m/s)
Visibility: 6 or more miles 10+ km)
Ceiling: 1500 feet AGL
Clouds: broken clouds at 1500 feet AGL
Weather: no significant weather forecast for this period